Time;durP1;ratioP1;P1;durP2;ratioP2;P2;SDS_P1;SDS_P2;PMS_P1;PMS_P2;Temp;Humidity;BMP_temperature;BMP_pressure;BME280_temperature;BME280_humidity;BME280_pressure;Samples;Min_cycle;Max_cycle;Signal;HPM_P1;HPM_P2
2022/05/16 00:01:19;;;;;;;4.47;2.05;;;19.70;86.50;;;;;;5057765;28;20036;-79
2022/05/16 00:03:51;;;;;;;6.65;2.22;;;19.70;86.70;;;;;;5056832;28;20087;-78
2022/05/16 00:06:20;;;;;;;9.90;2.38;;;19.70;86.90;;;;;;5075682;28;20094;-78
2022/05/16 00:08:55;;;;;;;5.75;1.92;;;19.70;86.90;;;;;;5056627;28;20032;-78
2022/05/16 00:11:29;;;;;;;4.45;2.00;;;19.60;87.10;;;;;;5057235;28;20443;-79
2022/05/16 00:13:57;;;;;;;4.10;2.03;;;19.60;86.90;;;;;;5074254;28;20032;-78
2022/05/16 00:16:33;;;;;;;4.20;2.00;;;19.60;86.80;;;;;;5056282;28;20072;-79
2022/05/16 00:19:02;;;;;;;3.20;1.80;;;19.60;86.70;;;;;;5074535;28;20048;-79
2022/05/16 00:21:29;;;;;;;4.35;2.28;;;19.60;86.80;;;;;;5056963;28;20036;-78
2022/05/16 00:23:57;;;;;;;3.75;1.85;;;19.50;86.90;;;;;;5074068;28;20473;-78
2022/05/16 00:26:26;;;;;;;5.22;2.28;;;19.50;86.80;;;;;;5075147;28;20029;-79
2022/05/16 00:28:58;;;;;;;4.45;2.08;;;19.50;86.80;;;;;;5056303;28;20033;-78
2022/05/16 00:31:27;;;;;;;5.15;2.47;;;19.50;86.90;;;;;;5056985;28;20126;-79
2022/05/16 00:33:56;;;;;;;5.68;2.47;;;19.40;86.80;;;;;;5073912;28;20060;-78
2022/05/16 00:36:22;;;;;;;10.13;2.50;;;19.50;86.40;;;;;;5056252;28;20094;-79
2022/05/16 00:38:53;;;;;;;6.28;2.65;;;19.40;86.50;;;;;;5056270;28;20036;-79
2022/05/16 00:41:23;;;;;;;2.80;1.77;;;19.50;86.70;;;;;;5074319;28;20110;-79
2022/05/16 00:43:56;;;;;;;7.30;2.45;;;19.50;86.50;;;;;;5073998;28;20036;-79
2022/05/16 00:46:29;;;;;;;10.63;3.60;;;19.40;86.70;;;;;;5056471;28;20404;-79
2022/05/16 00:48:56;;;;;;;8.25;2.75;;;19.40;87.00;;;;;;5073967;28;20077;-79
2022/05/16 00:51:43;;;;;;;4.25;2.50;;;19.30;87.20;;;;;;5074047;28;20036;-78
2022/05/16 00:54:49;;;;;;;5.30;1.90;;;19.30;87.70;;;;;;5074063;28;20389;-79
2022/05/16 00:57:36;;;;;;;4.75;2.40;;;19.20;88.00;;;;;;5042924;28;20040;-78
2022/05/16 01:00:36;;;;;;;6.40;2.13;;;19.20;88.10;;;;;;5055257;28;20349;-79
2022/05/16 01:06:16;;;;;;;9.45;2.97;;;19.10;88.80;;;;;;5074330;28;20036;-79
2022/05/16 01:08:52;;;;;;;8.57;2.75;;;19.20;88.70;;;;;;5073908;28;20111;-79
2022/05/16 01:11:27;;;;;;;4.55;2.55;;;19.10;88.70;;;;;;5056005;28;20063;-79
2022/05/16 01:14:08;;;;;;;5.38;2.78;;;19.10;89.00;;;;;;5055549;28;20385;-79
2022/05/16 01:17:09;;;;;;;6.25;2.30;;;19.10;89.50;;;;;;5073898;28;20091;-79
2022/05/16 01:19:54;;;;;;;4.50;2.25;;;19.00;89.70;;;;;;5048710;28;20040;-79
2022/05/16 01:22:25;;;;;;;4.32;2.25;;;18.80;90.20;;;;;;5055490;28;20489;-79
2022/05/16 01:25:06;;;;;;;;;;;18.90;90.00;;;;;;5073381;28;20032;-78
2022/05/16 01:27:49;;;;;;;9.43;2.75;;;18.90;90.10;;;;;;5055434;28;20250;-79
2022/05/16 01:30:46;;;;;;;3.92;2.40;;;19.00;90.10;;;;;;5055778;28;20047;-79
2022/05/16 01:33:27;;;;;;;6.80;2.22;;;19.00;90.10;;;;;;5073687;28;20029;-78
2022/05/16 01:35:57;;;;;;;3.03;2.30;;;19.00;90.10;;;;;;5054877;28;20397;-79
2022/05/16 01:38:31;;;;;;;4.85;2.60;;;18.90;90.30;;;;;;5055144;28;20524;-79
2022/05/16 01:41:01;;;;;;;6.20;2.78;;;18.90;90.20;;;;;;5072769;28;20045;-79
2022/05/16 01:43:39;;;;;;;8.77;3.05;;;18.80;90.30;;;;;;5055750;28;20037;-79
2022/05/16 01:46:12;;;;;;;6.20;2.50;;;18.80;90.50;;;;;;5054580;28;20196;-78
2022/05/16 01:48:48;;;;;;;6.18;2.88;;;18.80;90.70;;;;;;5055634;28;20044;-79
2022/05/16 01:51:17;;;;;;;6.88;2.95;;;18.80;90.50;;;;;;5073088;28;20056;-79
2022/05/16 01:53:54;;;;;;;5.20;2.55;;;18.80;90.60;;;;;;5073161;28;20032;-78
2022/05/16 01:56:20;;;;;;;4.72;2.60;;;18.80;90.60;;;;;;5054977;28;20033;-78
2022/05/16 01:58:49;;;;;;;8.23;2.85;;;18.70;90.70;;;;;;5072595;28;20106;-77
2022/05/16 02:01:23;;;;;;;6.70;2.55;;;18.70;90.80;;;;;;5038800;28;20586;-78
2022/05/16 02:03:55;;;;;;;5.28;2.45;;;18.70;90.80;;;;;;5071793;28;20109;-78
2022/05/16 02:06:28;;;;;;;5.47;3.00;;;18.70;90.60;;;;;;5055042;28;20037;-79
2022/05/16 02:08:59;;;;;;;8.30;2.80;;;18.70;90.60;;;;;;5054415;28;20041;-78
2022/05/16 02:11:43;;;;;;;4.93;2.92;;;18.70;90.70;;;;;;5055283;28;20058;-79
2022/05/16 02:14:17;;;;;;;4.55;2.58;;;18.70;90.70;;;;;;5054216;28;20029;-79
2022/05/16 02:16:49;;;;;;;6.95;2.90;;;18.60;90.70;;;;;;5053840;28;20036;-79
2022/05/16 02:19:16;;;;;;;4.85;2.78;;;18.60;90.80;;;;;;5054651;28;20390;-78
2022/05/16 02:24:38;;;;;;;8.63;3.05;;;18.50;90.90;;;;;;5072872;28;20064;-78
2022/05/16 02:27:17;;;;;;;7.57;2.60;;;18.60;90.90;;;;;;5054354;28;20032;-78
2022/05/16 02:29:49;;;;;;;7.55;3.47;;;18.60;90.80;;;;;;5072500;28;20032;-78
2022/05/16 02:32:24;;;;;;;5.50;3.05;;;18.60;90.80;;;;;;5072478;28;20040;-78
2022/05/16 02:34:56;;;;;;;7.80;3.10;;;18.60;90.90;;;;;;5072094;28;20028;-75
2022/05/16 02:37:48;;;;;;;7.97;2.75;;;18.60;91.00;;;;;;5040643;28;20139;-76
2022/05/16 02:40:32;;;;;;;5.90;2.45;;;18.60;90.90;;;;;;5034902;28;20045;-76
2022/05/16 02:43:04;;;;;;;6.88;3.17;;;18.60;91.00;;;;;;5034209;28;20047;-76
2022/05/16 02:45:35;;;;;;;5.72;2.65;;;18.40;91.10;;;;;;5034545;28;20474;-76
2022/05/16 02:48:05;;;;;;;4.28;2.30;;;18.50;90.90;;;;;;5051633;28;20037;-75
2022/05/16 02:50:36;;;;;;;6.28;2.88;;;18.50;90.80;;;;;;5034737;28;20037;-76
2022/05/16 02:53:10;;;;;;;8.77;3.25;;;18.60;90.80;;;;;;5033718;28;20044;-76
2022/05/16 02:56:03;;;;;;;5.88;2.55;;;18.60;90.80;;;;;;5034370;28;20040;-76
2022/05/16 02:58:40;;;;;;;8.82;2.70;;;18.60;90.80;;;;;;5034239;28;20033;-76
2022/05/16 03:01:12;;;;;;;6.28;2.67;;;18.50;90.60;;;;;;5051198;28;20048;-76
2022/05/16 03:03:47;;;;;;;6.75;3.35;;;18.50;90.60;;;;;;5052088;28;20478;-76
2022/05/16 03:06:30;;;;;;;5.00;2.42;;;18.50;90.70;;;;;;5033727;28;20122;-76
2022/05/16 03:09:05;;;;;;;8.10;3.03;;;18.40;90.80;;;;;;5033673;28;20037;-76
2022/05/16 03:11:40;;;;;;;5.80;2.20;;;18.50;90.80;;;;;;5034289;28;20044;-77
2022/05/16 03:14:32;;;;;;;5.20;2.55;;;18.40;90.90;;;;;;5051604;28;20037;-76
2022/05/16 03:17:08;;;;;;;18.98;2.92;;;18.30;91.00;;;;;;5037518;28;20037;-75
2022/05/16 03:19:40;;;;;;;8.40;2.95;;;18.30;91.00;;;;;;5038101;28;20082;-76
2022/05/16 03:22:16;;;;;;;6.93;2.80;;;18.40;91.10;;;;;;5055881;28;20079;-78
2022/05/16 03:25:07;;;;;;;11.48;2.80;;;18.30;90.90;;;;;;5055795;28;20029;-75
2022/05/16 03:27:44;;;;;;;7.60;2.42;;;18.40;90.90;;;;;;5054722;28;20040;-76
2022/05/16 03:30:13;;;;;;;7.30;2.75;;;18.50;90.80;;;;;;5036737;28;20037;-76
2022/05/16 03:33:11;;;;;;;7.15;2.38;;;18.50;90.80;;;;;;5037878;28;20041;-76
2022/05/16 03:35:49;;;;;;;7.70;2.72;;;18.50;90.60;;;;;;5055856;28;20079;-76
2022/05/16 03:41:06;;;;;;;3.80;2.25;;;18.60;90.70;;;;;;5054945;28;20115;-78
2022/05/16 03:43:43;;;;;;;7.25;2.83;;;18.50;90.50;;;;;;5037795;28;20037;-79
2022/05/16 03:46:35;;;;;;;5.85;2.33;;;18.50;90.50;;;;;;5036797;28;20216;-78
2022/05/16 03:49:17;;;;;;;7.78;2.45;;;18.50;90.60;;;;;;5031703;28;20037;-78
2022/05/16 03:52:02;;;;;;;5.22;2.85;;;18.60;90.50;;;;;;5037759;28;20040;-78
2022/05/16 03:54:31;;;;;;;3.47;2.13;;;18.60;90.60;;;;;;5037770;28;20033;-79
2022/05/16 03:56:58;;;;;;;6.28;2.72;;;18.60;90.50;;;;;;5037126;28;20033;-78
2022/05/16 03:59:29;;;;;;;7.40;2.45;;;18.70;90.40;;;;;;5037945;28;20098;-78
2022/05/16 04:01:57;;;;;;;8.80;2.47;;;18.70;90.20;;;;;;5037041;28;20044;-78
2022/05/16 04:04:41;;;;;;;7.55;2.92;;;18.80;90.00;;;;;;5055381;28;20110;-78
2022/05/16 04:07:07;;;;;;;7.07;2.55;;;18.80;90.20;;;;;;5037011;28;20093;-78
2022/05/16 04:09:48;;;;;;;5.85;2.90;;;18.80;90.20;;;;;;5055039;28;20041;-78
2022/05/16 04:12:29;;;;;;;;;;;;;;;;;;;;;
2022/05/16 04:15:12;;;;;;;6.43;2.47;;;18.70;90.10;;;;;;5054881;28;20035;-78
2022/05/16 04:18:00;;;;;;;7.90;2.85;;;18.60;90.30;;;;;;5037145;28;20040;-76
2022/05/16 04:21:09;;;;;;;5.70;2.50;;;18.50;90.70;;;;;;5037195;28;20037;-77
2022/05/16 04:23:41;;;;;;;5.93;2.30;;;18.50;90.90;;;;;;5055059;28;20041;-76
2022/05/16 04:26:35;;;;;;;8.77;2.58;;;18.60;90.70;;;;;;5054137;28;20060;-76
2022/05/16 04:29:11;;;;;;;6.13;3.05;;;18.70;90.60;;;;;;5036413;28;20045;-76
2022/05/16 04:31:58;;;;;;;10.23;3.08;;;18.70;90.60;;;;;;5034774;28;20043;-77
2022/05/16 04:34:47;;;;;;;8.57;2.65;;;18.90;90.60;;;;;;5026571;28;20174;-78
2022/05/16 04:37:32;;;;;;;;;;;;;;;;;;;;;
2022/05/16 04:40:15;;;;;;;2.33;1.52;;;19.00;90.20;;;;;;5042282;28;20108;-74
2022/05/16 04:42:50;;;;;;;3.65;1.80;;;19.60;94.40;;;;;;5035319;28;20045;-75
2022/05/16 04:45:21;;;;;;;8.05;1.83;;;20.40;92.40;;;;;;5017009;28;20402;-74
2022/05/16 04:47:58;;;;;;;11.35;1.90;;;20.90;91.20;;;;;;5046458;28;20036;-74
2022/05/16 04:50:38;;;;;;;8.13;2.17;;;21.10;90.50;;;;;;5052584;28;20037;-75
2022/05/16 04:53:07;;;;;;;7.07;2.25;;;21.40;90.30;;;;;;5037390;28;20107;-74
2022/05/16 04:55:42;;;;;;;4.72;2.75;;;21.50;89.10;;;;;;5047140;28;20075;-77
2022/05/16 04:58:21;;;;;;;9.70;2.58;;;21.50;85.90;;;;;;5044118;28;20041;-77
2022/05/16 05:00:56;;;;;;;6.93;3.47;;;20.90;84.60;;;;;;5050989;28;20099;-78
2022/05/16 05:03:30;;;;;;;6.07;2.75;;;20.40;85.50;;;;;;5038725;28;20095;-78
2022/05/16 05:05:59;;;;;;;12.15;3.08;;;20.40;86.90;;;;;;5041379;28;20036;-81
2022/05/16 05:08:25;;;;;;;6.53;2.50;;;20.30;86.70;;;;;;5036514;28;20028;-81
2022/05/16 05:16:59;;;;;;;9.18;2.80;;;19.70;87.10;;;;;;5038563;28;20124;-77
2022/05/16 05:19:25;;;;;;;6.97;2.92;;;19.70;87.40;;;;;;5015661;28;20025;-77
2022/05/16 05:21:54;;;;;;;8.63;2.65;;;19.70;86.90;;;;;;5015847;28;20041;-76
2022/05/16 05:24:29;;;;;;;5.63;3.20;;;19.60;87.30;;;;;;5021975;28;20033;-77
2022/05/16 05:26:55;;;;;;;6.82;3.13;;;19.50;87.40;;;;;;5046405;28;20034;-77
2022/05/16 05:29:22;;;;;;;10.38;3.25;;;19.30;88.70;;;;;;5032397;28;20037;-77
2022/05/16 05:31:49;;;;;;;9.10;3.55;;;19.50;88.40;;;;;;5042049;28;20475;-76
2022/05/16 05:34:15;;;;;;;10.00;3.38;;;19.50;88.10;;;;;;5016670;28;20041;-76
2022/05/16 05:36:42;;;;;;;12.65;4.13;;;19.60;94.30;;;;;;5051645;28;20045;-76
2022/05/16 05:39:08;;;;;;;6.97;3.92;;;19.70;92.30;;;;;;5065011;28;20037;-75
2022/05/16 05:41:35;;;;;;;8.75;3.33;;;19.80;93.40;;;;;;5053970;28;20040;-78
2022/05/16 05:44:00;;;;;;;9.13;4.00;;;19.80;90.00;;;;;;5053419;28;20044;-78
2022/05/16 05:46:27;;;;;;;11.07;3.22;;;19.80;88.80;;;;;;5054224;28;20401;-77
2022/05/16 05:48:53;;;;;;;10.98;3.85;;;19.60;88.90;;;;;;5073119;28;20036;-76
2022/05/16 05:51:20;;;;;;;11.43;3.92;;;19.40;89.60;;;;;;5053973;28;20092;-76
2022/05/16 05:53:46;;;;;;;9.13;3.75;;;19.40;90.00;;;;;;5071493;28;20051;-81
2022/05/16 05:56:13;;;;;;;16.15;4.43;;;19.40;90.50;;;;;;5037284;28;20530;-79
2022/05/16 05:58:42;;;;;;;55.72;37.45;;;19.40;90.80;;;;;;5067529;28;20040;-81
2022/05/16 06:01:10;;;;;;;10.52;5.95;;;19.60;91.90;;;;;;5069951;28;20047;-80
2022/05/16 06:03:36;;;;;;;10.38;4.63;;;19.50;90.40;;;;;;5052470;28;20040;-81
2022/05/16 06:06:03;;;;;;;13.57;4.57;;;19.50;90.40;;;;;;5052572;28;20042;-79
2022/05/16 06:08:29;;;;;;;13.35;4.35;;;19.50;91.00;;;;;;5051827;28;20378;-82
2022/05/16 06:10:55;;;;;;;15.43;4.72;;;19.30;90.30;;;;;;5051609;28;20124;-81
2022/05/16 06:13:31;;;;;;;13.45;3.78;;;19.50;90.50;;;;;;5068596;28;20059;-82
2022/05/16 06:16:06;;;;;;;14.27;5.05;;;19.70;90.50;;;;;;5048618;28;20106;-79
2022/05/16 06:18:32;;;;;;;11.23;3.85;;;19.80;90.40;;;;;;5065507;28;20033;-80
2022/05/16 06:20:58;;;;;;;10.88;4.18;;;20.00;90.10;;;;;;5064190;28;20127;-81
2022/05/16 06:23:24;;;;;;;15.65;3.65;;;20.00;90.50;;;;;;5050522;28;20584;-81
2022/05/16 06:25:50;;;;;;;5.32;3.15;;;20.00;90.20;;;;;;5073395;28;20047;-82
2022/05/16 06:28:19;;;;;;;15.60;3.90;;;20.00;90.60;;;;;;5073444;28;20036;-81
2022/05/16 06:30:52;;;;;;;12.55;3.83;;;20.00;89.10;;;;;;5072475;28;20063;-81
2022/05/16 06:33:29;;;;;;;22.30;3.63;;;19.80;90.20;;;;;;5071751;28;20033;-81
2022/05/16 06:36:11;;;;;;;17.10;3.63;;;19.70;90.40;;;;;;5054379;28;20043;-81
2022/05/16 06:38:57;;;;;;;8.65;3.78;;;19.90;90.10;;;;;;5054899;28;20048;-80
2022/05/16 06:41:23;;;;;;;14.73;4.60;;;20.00;90.80;;;;;;5053869;28;20416;-81
2022/05/16 06:43:52;;;;;;;8.57;3.55;;;20.20;91.30;;;;;;5054513;28;20047;-80
2022/05/16 06:46:21;;;;;;;14.77;3.80;;;20.20;90.20;;;;;;5071805;28;20033;-81
2022/05/16 06:48:47;;;;;;;13.43;3.80;;;20.20;89.60;;;;;;5053964;28;20060;-80
2022/05/16 06:54:26;;;;;;;7.15;3.85;;;20.10;90.10;;;;;;5072094;28;20044;-81
2022/05/16 06:56:52;;;;;;;10.27;3.58;;;20.30;90.10;;;;;;5054362;28;20033;-80
2022/05/16 06:59:35;;;;;;;10.57;3.80;;;20.00;90.20;;;;;;5071243;28;20045;-81
2022/05/16 07:02:05;;;;;;;5.32;2.55;;;20.10;89.50;;;;;;5053988;28;20033;-81
2022/05/16 07:04:49;;;;;;;9.65;3.72;;;20.10;89.50;;;;;;5053563;28;20178;-80
2022/05/16 07:07:27;;;;;;;7.82;3.38;;;20.00;89.40;;;;;;5071564;28;20033;-80
2022/05/16 07:10:15;;;;;;;10.43;3.50;;;19.90;89.70;;;;;;5071786;28;20032;-81
2022/05/16 07:12:50;;;;;;;7.97;3.75;;;19.80;89.90;;;;;;5054053;28;20122;-81
2022/05/16 07:15:16;;;;;;;7.30;3.22;;;19.70;90.40;;;;;;5053279;28;20043;-80
2022/05/16 07:23:57;;;;;;;;;;;19.80;90.30;;;;;;5072536;28;20027;-81
2022/05/16 07:29:10;;;;;;;7.95;3.97;;;19.80;90.40;;;;;;5071380;28;20102;-80
2022/05/16 07:32:05;;;;;;;8.55;3.72;;;19.80;90.40;;;;;;5054084;28;20036;-81
2022/05/16 07:34:31;;;;;;;18.30;3.88;;;19.80;90.60;;;;;;5050311;28;20446;-81
2022/05/16 07:37:18;;;;;;;12.30;3.22;;;20.00;90.30;;;;;;5071485;28;20072;-81
2022/05/16 07:39:43;;;;;;;10.30;3.75;;;20.00;89.70;;;;;;5071455;28;20032;-81
2022/05/16 07:42:10;;;;;;;7.50;3.13;;;20.20;89.80;;;;;;5070857;28;20114;-81
2022/05/16 07:44:40;;;;;;;7.90;3.35;;;20.10;88.10;;;;;;5053908;28;20118;-81
2022/05/16 07:47:10;;;;;;;6.70;2.88;;;19.90;88.80;;;;;;5053271;28;20397;-80
2022/05/16 07:49:37;;;;;;;15.88;3.40;;;20.10;88.40;;;;;;5053900;28;20086;-81
2022/05/16 07:52:03;;;;;;;10.45;3.20;;;20.10;89.00;;;;;;5053545;28;20150;-81
2022/05/16 07:54:32;;;;;;;7.93;3.20;;;20.00;88.20;;;;;;5052975;28;20036;-80
2022/05/16 07:56:58;;;;;;;12.02;3.35;;;20.20;88.80;;;;;;5037512;28;20037;-81
2022/05/16 07:59:48;;;;;;;7.57;3.67;;;20.50;88.80;;;;;;5053137;28;20075;-81
2022/05/16 08:02:16;;;;;;;7.82;3.03;;;20.70;87.10;;;;;;5071412;28;20036;-80
2022/05/16 08:04:42;;;;;;;9.82;3.33;;;21.10;88.20;;;;;;5057679;28;20133;-81
2022/05/16 08:07:09;;;;;;;8.98;3.63;;;21.10;86.90;;;;;;5056732;28;20483;-80
2022/05/16 08:12:39;;;;;;;7.22;3.22;;;20.80;88.30;;;;;;5074818;28;20051;-81
2022/05/16 08:15:09;;;;;;;13.68;3.65;;;20.70;88.40;;;;;;5057279;28;20045;-81
2022/05/16 08:17:47;;;;;;;6.32;3.70;;;21.10;90.00;;;;;;5075213;28;20039;-80
2022/05/16 08:20:16;;;;;;;6.10;2.80;;;21.20;87.70;;;;;;5056482;28;20048;-80
2022/05/16 08:22:42;;;;;;;7.65;3.08;;;21.20;87.60;;;;;;5057207;28;20053;-81
2022/05/16 08:25:19;;;;;;;10.48;3.58;;;21.30;88.00;;;;;;5075170;28;20033;-80
2022/05/16 08:28:10;;;;;;;10.73;4.15;;;21.40;88.30;;;;;;5057994;28;20165;-80
2022/05/16 08:30:46;;;;;;;8.45;3.45;;;21.40;87.70;;;;;;5076302;28;20060;-80
2022/05/16 08:33:22;;;;;;;8.00;3.20;;;21.30;88.90;;;;;;5075007;28;20126;-82
2022/05/16 08:39:52;;;;;;;7.22;3.80;;;21.20;89.40;;;;;;5057659;28;20036;-81
2022/05/16 08:41:29;;;;;;;8.00;3.08;;;21.60;89.00;;;;;;5074475;28;20090;-81
2022/05/16 08:44:01;;;;;;;7.70;3.40;;;21.80;87.20;;;;;;5075044;28;20078;-80
2022/05/16 08:46:46;;;;;;;16.15;3.65;;;22.10;87.40;;;;;;5056138;28;20036;-81
2022/05/16 08:50:02;;;;;;;;;;;;;;;;;;;;;
2022/05/16 08:52:33;;;;;;;15.10;3.78;;;22.80;86.10;;;;;;5073190;28;20216;-81
2022/05/16 08:55:11;;;;;;;6.57;2.88;;;23.30;85.50;;;;;;5074357;28;20035;-81
2022/05/16 09:01:43;;;;;;;8.18;3.35;;;24.40;83.40;;;;;;4968928;28;20175;-81
2022/05/16 09:04:26;;;;;;;6.90;3.58;;;24.70;83.00;;;;;;5056092;28;20040;-81
2022/05/16 09:07:01;;;;;;;6.15;3.28;;;24.70;81.50;;;;;;5056206;28;20119;-75
2022/05/16 09:09:41;;;;;;;10.45;3.60;;;24.90;83.70;;;;;;5054774;28;20448;-80
2022/05/16 09:12:18;;;;;;;7.25;3.22;;;25.10;83.10;;;;;;5074023;28;20033;-78
2022/05/16 09:14:54;;;;;;;15.60;3.50;;;24.90;83.30;;;;;;5055463;28;20037;-81
2022/05/16 09:17:36;;;;;;;9.85;3.17;;;25.00;82.40;;;;;;5072643;28;20036;-79
2022/05/16 09:20:14;;;;;;;10.77;3.13;;;24.60;84.20;;;;;;5055686;28;20122;-79
2022/05/16 09:23:22;;;;;;;10.68;3.58;;;24.80;84.40;;;;;;5055673;28;20041;-75
2022/05/16 09:26:13;;;;;;;13.35;3.47;;;24.40;83.80;;;;;;5051765;28;20033;-74
2022/05/16 09:28:55;;;;;;;9.70;3.03;;;24.50;83.90;;;;;;5055776;28;20120;-75
2022/05/16 09:31:35;;;;;;;14.20;3.40;;;24.80;84.00;;;;;;5072878;28;20032;-76
2022/05/16 09:34:01;;;;;;;10.43;3.83;;;24.80;82.90;;;;;;5074855;28;20033;-71
2022/05/16 09:36:36;;;;;;;10.23;2.88;;;25.10;82.00;;;;;;5072322;28;20043;-72
2022/05/16 09:39:04;;;;;;;4.28;2.88;;;25.20;82.00;;;;;;5054848;28;20090;-78
2022/05/16 09:41:45;;;;;;;7.15;3.03;;;25.60;82.00;;;;;;5054403;28;20037;-79
2022/05/16 09:44:43;;;;;;;8.02;3.03;;;25.70;81.70;;;;;;5055287;28;20129;-78
2022/05/16 09:47:29;;;;;;;7.28;2.95;;;25.60;81.60;;;;;;5073806;28;20055;-84
2022/05/16 09:50:21;;;;;;;7.18;3.47;;;25.90;81.90;;;;;;5075133;28;20029;-81
2022/05/16 09:53:01;;;;;;;7.68;3.03;;;26.10;80.70;;;;;;5057165;28;20040;-83
2022/05/16 09:55:55;;;;;;;11.90;5.40;;;26.00;82.00;;;;;;5056885;28;20036;-83
2022/05/16 09:58:36;;;;;;;25.00;11.55;;;26.50;81.10;;;;;;5052748;28;20151;-84
2022/05/16 10:01:08;;;;;;;14.98;5.18;;;26.90;80.10;;;;;;5056229;28;20061;-83
2022/05/16 10:03:50;;;;;;;16.65;4.95;;;26.60;80.30;;;;;;5073110;28;20033;-84
2022/05/16 10:06:36;;;;;;;13.32;4.68;;;26.60;81.20;;;;;;5074111;28;20040;-84
2022/05/16 10:09:14;;;;;;;8.85;3.45;;;26.90;80.20;;;;;;5057004;28;20072;-85
2022/05/16 10:11:47;;;;;;;6.40;2.95;;;26.80;80.40;;;;;;5075474;28;20048;-85
2022/05/16 10:14:16;;;;;;;8.43;3.25;;;27.00;79.40;;;;;;5058662;28;20044;-85
2022/05/16 10:16:47;;;;;;;20.55;4.63;;;27.10;79.70;;;;;;5074861;28;20393;-85
2022/05/16 10:19:18;;;;;;;;;;;27.20;79.60;;;;;;5057810;28;20036;-85
2022/05/16 10:22:19;;;;;;;8.93;3.60;;;27.00;79.60;;;;;;5056068;28;19908;-85
2022/05/16 10:24:49;;;;;;;;;;;27.60;79.80;;;;;;5073484;28;20116;-82
2022/05/16 10:27:19;;;;;;;9.93;3.20;;;28.20;78.10;;;;;;5054885;28;19905;-76
2022/05/16 10:29:51;;;;;;;6.97;3.30;;;28.30;78.20;;;;;;5073744;28;20367;-83
2022/05/16 10:35:38;;;;;;;8.18;3.17;;;27.80;79.00;;;;;;5072128;28;20531;-84
2022/05/16 10:38:18;;;;;;;8.20;3.10;;;27.70;79.20;;;;;;5072545;28;20087;-85
2022/05/16 10:40:54;;;;;;;9.60;3.53;;;27.90;79.00;;;;;;5073682;28;20043;-85
2022/05/16 10:43:50;;;;;;;7.93;3.05;;;28.00;78.90;;;;;;5055115;28;20036;-85
2022/05/16 10:46:29;;;;;;;10.60;3.28;;;28.00;79.20;;;;;;5073171;28;20025;-83
2022/05/16 10:49:12;;;;;;;7.50;3.33;;;28.40;78.50;;;;;;5073425;28;20040;-84
2022/05/16 10:54:58;;;;;;;7.72;3.13;;;27.90;79.10;;;;;;5067465;27;1368159;-79
2022/05/16 10:58:00;;;;;;;12.90;3.28;;;28.20;79.60;;;;;;5108048;28;20032;-79
2022/05/16 11:00:59;;;;;;;9.07;3.17;;;28.30;78.70;;;;;;5107799;28;20028;-80
2022/05/16 11:03:46;;;;;;;7.80;3.28;;;27.90;79.40;;;;;;5101083;28;20039;-80
2022/05/16 11:06:26;;;;;;;5.97;3.13;;;27.70;79.80;;;;;;5108180;28;20092;-80
2022/05/16 11:09:15;;;;;;;14.52;3.50;;;28.00;80.10;;;;;;5107391;28;20077;-79
2022/05/16 11:12:05;;;;;;;10.48;3.63;;;28.40;79.00;;;;;;5106956;28;20032;-79
2022/05/16 11:14:38;;;;;;;7.40;3.45;;;28.40;79.00;;;;;;5107408;28;20350;-79
2022/05/16 11:17:26;;;;;;;8.25;3.45;;;28.80;79.30;;;;;;5107814;28;20020;-80
2022/05/16 11:19:52;;;;;;;6.53;3.17;;;29.00;78.00;;;;;;5108885;28;20032;-80
2022/05/16 11:22:21;;;;;;;6.38;3.05;;;29.00;78.20;;;;;;5107195;28;20031;-73
2022/05/16 11:25:25;;;;;;;9.95;3.00;;;29.20;78.50;;;;;;5109108;28;20480;-80
2022/05/16 11:28:09;;;;;;;9.27;3.40;;;29.40;77.60;;;;;;5106886;28;20415;-80
2022/05/16 11:30:44;;;;;;;7.85;3.30;;;29.50;77.00;;;;;;5106936;28;20048;-79
2022/05/16 11:33:34;;;;;;;9.30;3.15;;;29.70;76.50;;;;;;5107269;28;20081;-79
2022/05/16 11:36:11;;;;;;;8.23;3.33;;;29.40;77.00;;;;;;5108973;28;20031;-79
2022/05/16 11:39:09;;;;;;;6.93;2.40;;;29.30;77.20;;;;;;5090651;28;20085;-78
2022/05/16 11:41:40;;;;;;;9.98;2.90;;;29.70;76.80;;;;;;5108791;28;20551;-80
2022/05/16 11:44:31;;;;;;;8.55;2.97;;;29.10;77.50;;;;;;5107860;28;20028;-80
2022/05/16 11:47:06;;;;;;;7.18;2.72;;;28.60;78.30;;;;;;5107777;28;20058;-79
2022/05/16 11:49:59;;;;;;;14.65;3.30;;;28.40;78.70;;;;;;5107151;28;20034;-79
2022/05/16 11:52:56;;;;;;;8.98;3.20;;;28.20;78.90;;;;;;5062844;28;20131;-79
2022/05/16 12:01:04;;;;;;;9.32;3.30;;;27.30;81.20;;;;;;5108913;28;20073;-78
2022/05/16 12:03:38;;;;;;;15.55;4.22;;;27.10;82.40;;;;;;5107143;28;20042;-79
2022/05/16 12:06:32;;;;;;;8.85;3.72;;;26.90;86.40;;;;;;5095747;28;20043;-79
2022/05/16 12:09:16;;;;;;;7.18;3.70;;;26.90;88.10;;;;;;5093793;28;20028;-79
2022/05/16 12:11:56;;;;;;;8.25;3.63;;;26.40;87.30;;;;;;5093250;28;20024;-79
2022/05/16 12:14:29;;;;;;;5.32;2.80;;;26.30;87.70;;;;;;5092974;28;20067;-78
2022/05/16 12:17:00;;;;;;;9.57;2.97;;;26.30;87.70;;;;;;5093905;28;20028;-79
2022/05/16 12:19:38;;;;;;;19.95;3.75;;;26.00;85.90;;;;;;5094386;28;20107;-78
2022/05/16 12:22:14;;;;;;;8.65;2.38;;;25.90;86.60;;;;;;5093891;28;20043;-79
2022/05/16 12:24:41;;;;;;;9.05;2.65;;;25.80;85.70;;;;;;5094516;28;20469;-79
2022/05/16 12:27:23;;;;;;;7.25;2.75;;;25.60;86.10;;;;;;5093624;28;20051;-79
2022/05/16 12:29:53;;;;;;;9.63;3.15;;;25.50;87.00;;;;;;5093622;28;20020;-79
2022/05/16 12:32:31;;;;;;;9.00;3.42;;;25.30;87.70;;;;;;5093462;28;20034;-79
2022/05/16 12:35:18;;;;;;;20.13;3.35;;;25.20;90.20;;;;;;5093340;28;20121;-79
2022/05/16 12:37:47;;;;;;;6.78;2.97;;;25.00;90.60;;;;;;5094243;28;20028;-79
2022/05/16 12:40:47;;;;;;;14.13;2.83;;;24.90;90.80;;;;;;5094504;28;20028;-79
2022/05/16 12:43:38;;;;;;;8.85;3.35;;;24.80;91.80;;;;;;5093562;28;20125;-79
2022/05/16 12:46:39;;;;;;;18.65;3.67;;;24.50;92.60;;;;;;5094160;28;20077;-79
2022/05/16 12:49:11;;;;;;;16.00;3.80;;;24.50;93.40;;;;;;5093482;28;20025;-79
2022/05/16 12:51:56;;;;;;;9.23;3.60;;;24.40;94.50;;;;;;5092839;28;20024;-79
2022/05/16 12:54:44;;;;;;;7.35;3.72;;;24.90;94.50;;;;;;5076402;28;20048;-79
2022/05/16 12:57:40;;;;;;;9.90;3.47;;;25.20;96.10;;;;;;5093182;28;20035;-79
2022/05/16 13:00:27;;;;;;;7.72;3.63;;;25.50;93.60;;;;;;5094314;28;20028;-79
2022/05/16 13:03:38;;;;;;;10.48;3.83;;;25.30;94.60;;;;;;5093943;28;20427;-79
2022/05/16 13:06:23;;;;;;;11.05;4.35;;;25.40;93.80;;;;;;5094382;28;20032;-79
2022/05/16 13:09:01;;;;;;;9.25;3.15;;;24.90;94.80;;;;;;5094035;28;20051;-79
2022/05/16 13:12:04;;;;;;;8.93;2.90;;;24.90;94.90;;;;;;5093276;28;20105;-78
2022/05/16 13:15:05;;;;;;;14.27;2.58;;;24.70;93.90;;;;;;5092109;28;20039;-80
2022/05/16 13:17:39;;;;;;;8.02;2.67;;;24.90;93.80;;;;;;5091400;28;20035;-79
2022/05/16 13:20:10;;;;;;;6.85;2.83;;;25.20;94.00;;;;;;5093815;28;20032;-79
2022/05/16 13:22:37;;;;;;;9.33;2.67;;;25.30;93.10;;;;;;5091872;28;20461;-78
2022/05/16 13:25:04;;;;;;;11.93;4.13;;;25.10;93.50;;;;;;5092088;28;20343;-78
2022/05/16 13:30:21;;;;;;;12.10;2.92;;;25.50;92.80;;;;;;5093765;28;20031;-79
2022/05/16 13:32:48;;;;;;;5.35;2.13;;;25.70;91.80;;;;;;5092850;28;20020;-79
2022/05/16 13:35:25;;;;;;;7.85;1.85;;;25.60;91.60;;;;;;5092352;28;20438;-80
2022/05/16 13:37:53;;;;;;;4.63;1.98;;;25.50;91.50;;;;;;5093740;28;20024;-79
2022/05/16 13:40:21;;;;;;;8.93;2.25;;;25.50;91.50;;;;;;5091911;28;20483;-79
2022/05/16 13:42:47;;;;;;;10.85;2.15;;;25.50;91.60;;;;;;5091541;28;20046;-79
2022/05/16 13:45:13;;;;;;;9.13;2.00;;;25.50;91.60;;;;;;5092051;28;20024;-79
2022/05/16 13:47:41;;;;;;;10.30;2.03;;;25.80;91.80;;;;;;5092822;28;20368;-80
2022/05/16 13:50:29;;;;;;;6.90;1.95;;;25.80;91.70;;;;;;5092954;28;20099;-79
2022/05/16 13:52:55;;;;;;;5.25;2.50;;;25.80;91.20;;;;;;5092189;28;20090;-80
2022/05/16 13:55:22;;;;;;;8.00;2.05;;;26.10;91.20;;;;;;5091716;28;20032;-80
2022/05/16 13:57:48;;;;;;;10.00;2.33;;;26.40;90.20;;;;;;5091030;28;20081;-79
2022/05/16 14:00:29;;;;;;;9.25;1.98;;;26.80;90.00;;;;;;5091910;28;20038;-80
2022/05/16 14:02:59;;;;;;;10.45;1.75;;;27.30;87.60;;;;;;5093227;28;20020;-79
2022/05/16 14:05:31;;;;;;;4.32;1.85;;;27.50;86.40;;;;;;5093231;28;20082;-78
2022/05/16 14:07:58;;;;;;;8.43;1.95;;;27.20;84.70;;;;;;5091936;28;20109;-79
2022/05/16 14:10:28;;;;;;;10.43;2.53;;;27.20;83.60;;;;;;5091528;28;20038;-78
2022/05/16 14:12:59;;;;;;;6.38;1.50;;;27.00;83.50;;;;;;5092450;28;20032;-77
2022/05/16 14:15:31;;;;;;;5.75;1.85;;;26.60;84.10;;;;;;5092593;28;20036;-78
2022/05/16 14:18:12;;;;;;;6.38;1.95;;;26.50;85.30;;;;;;5092515;28;20016;-79
2022/05/16 14:20:50;;;;;;;10.60;1.80;;;26.30;85.70;;;;;;5090834;28;20140;-80
2022/05/16 14:23:22;;;;;;;7.22;1.98;;;26.10;86.90;;;;;;5092592;28;20032;-79
2022/05/16 14:25:49;;;;;;;5.60;1.80;;;25.80;86.20;;;;;;5091011;28;20548;-78
2022/05/16 14:28:32;;;;;;;13.00;2.00;;;25.60;87.10;;;;;;5091346;28;20033;-80